sensor_id;sensor_type;location;lat;lon;timestamp;P1;P2;P0
80643;PMS5003;70010;60.224;24.712;2023-06-14T00:00:41;6;6;
80643;PMS5003;70010;60.224;24.712;2023-06-14T00:03:07;8;8;
80643;PMS5003;70010;60.224;24.712;2023-06-14T00:05:32;8;7;
80643;PMS5003;70010;60.224;24.712;2023-06-14T00:07:57;9;8;
80643;PMS5003;70010;60.224;24.712;2023-06-14T00:10:22;9;8;
80643;PMS5003;70010;60.224;24.712;2023-06-14T00:12:48;10;10;
80643;PMS5003;70010;60.224;24.712;2023-06-14T00:15:13;6;6;
80643;PMS5003;70010;60.224;24.712;2023-06-14T00:17:38;6;6;
80643;PMS5003;70010;60.224;24.712;2023-06-14T00:20:04;7;7;
80643;PMS5003;70010;60.224;24.712;2023-06-14T00:22:29;6;6;
80643;PMS5003;70010;60.224;24.712;2023-06-14T00:24:54;8;8;
80643;PMS5003;70010;60.224;24.712;2023-06-14T00:27:20;9;8;
80643;PMS5003;70010;60.224;24.712;2023-06-14T00:29:45;8;6;
80643;PMS5003;70010;60.224;24.712;2023-06-14T00:32:10;9;7;
80643;PMS5003;70010;60.224;24.712;2023-06-14T00:34:36;11;7;
80643;PMS5003;70010;60.224;24.712;2023-06-14T00:37:01;9;7;
80643;PMS5003;70010;60.224;24.712;2023-06-14T00:39:27;7;7;
80643;PMS5003;70010;60.224;24.712;2023-06-14T00:41:52;8;7;
80643;PMS5003;70010;60.224;24.712;2023-06-14T00:44:17;8;8;
80643;PMS5003;70010;60.224;24.712;2023-06-14T00:46:44;7;6;
80643;PMS5003;70010;60.224;24.712;2023-06-14T00:49:08;10;10;
80643;PMS5003;70010;60.224;24.712;2023-06-14T00:51:33;10;7;
80643;PMS5003;70010;60.224;24.712;2023-06-14T00:53:59;8;8;
80643;PMS5003;70010;60.224;24.712;2023-06-14T00:56:24;8;7;
80643;PMS5003;70010;60.224;24.712;2023-06-14T00:58:49;7;7;
80643;PMS5003;70010;60.224;24.712;2023-06-14T01:01:15;8;7;
80643;PMS5003;70010;60.224;24.712;2023-06-14T01:03:40;9;9;
80643;PMS5003;70010;60.224;24.712;2023-06-14T01:06:09;9;9;
80643;PMS5003;70010;60.224;24.712;2023-06-14T01:08:31;9;7;
80643;PMS5003;70010;60.224;24.712;2023-06-14T01:10:59;12;10;
80643;PMS5003;70010;60.224;24.712;2023-06-14T01:13:23;10;8;
80643;PMS5003;70010;60.224;24.712;2023-06-14T01:15:47;9;8;
80643;PMS5003;70010;60.224;24.712;2023-06-14T01:18:12;8;8;
80643;PMS5003;70010;60.224;24.712;2023-06-14T01:20:37;7;7;
80643;PMS5003;70010;60.224;24.712;2023-06-14T01:23:03;7;7;
80643;PMS5003;70010;60.224;24.712;2023-06-14T01:25:28;9;8;
80643;PMS5003;70010;60.224;24.712;2023-06-14T01:27:54;10;10;
80643;PMS5003;70010;60.224;24.712;2023-06-14T01:30:19;9;9;
80643;PMS5003;70010;60.224;24.712;2023-06-14T01:32:44;11;8;
80643;PMS5003;70010;60.224;24.712;2023-06-14T01:35:10;9;9;
80643;PMS5003;70010;60.224;24.712;2023-06-14T01:37:35;7;7;
80643;PMS5003;70010;60.224;24.712;2023-06-14T01:40:01;10;9;
80643;PMS5003;70010;60.224;24.712;2023-06-14T01:42:26;6;6;
80643;PMS5003;70010;60.224;24.712;2023-06-14T01:44:51;7;7;
80643;PMS5003;70010;60.224;24.712;2023-06-14T01:47:17;16;15;
80643;PMS5003;70010;60.224;24.712;2023-06-14T01:49:42;8;8;
80643;PMS5003;70010;60.224;24.712;2023-06-14T01:52:07;10;7;
80643;PMS5003;70010;60.224;24.712;2023-06-14T01:54:33;8;8;
80643;PMS5003;70010;60.224;24.712;2023-06-14T01:56:58;9;8;
80643;PMS5003;70010;60.224;24.712;2023-06-14T01:59:23;14;13;
80643;PMS5003;70010;60.224;24.712;2023-06-14T02:01:49;9;8;
80643;PMS5003;70010;60.224;24.712;2023-06-14T02:04:14;13;10;
80643;PMS5003;70010;60.224;24.712;2023-06-14T02:06:39;14;14;
80643;PMS5003;70010;60.224;24.712;2023-06-14T02:09:04;9;9;
80643;PMS5003;70010;60.224;24.712;2023-06-14T02:11:29;12;10;
80643;PMS5003;70010;60.224;24.712;2023-06-14T02:13:56;10;9;
80643;PMS5003;70010;60.224;24.712;2023-06-14T02:16:20;10;8;
80643;PMS5003;70010;60.224;24.712;2023-06-14T02:18:45;11;11;
80643;PMS5003;70010;60.224;24.712;2023-06-14T02:21:11;9;8;
80643;PMS5003;70010;60.224;24.712;2023-06-14T02:23:36;8;8;
80643;PMS5003;70010;60.224;24.712;2023-06-14T02:26:01;8;8;
80643;PMS5003;70010;60.224;24.712;2023-06-14T02:28:26;7;7;
80643;PMS5003;70010;60.224;24.712;2023-06-14T02:30:52;9;9;
80643;PMS5003;70010;60.224;24.712;2023-06-14T02:33:17;10;10;
80643;PMS5003;70010;60.224;24.712;2023-06-14T02:35:42;9;9;
80643;PMS5003;70010;60.224;24.712;2023-06-14T02:38:08;14;13;
80643;PMS5003;70010;60.224;24.712;2023-06-14T02:40:33;11;11;
80643;PMS5003;70010;60.224;24.712;2023-06-14T02:42:59;10;9;
80643;PMS5003;70010;60.224;24.712;2023-06-14T02:45:24;14;14;
80643;PMS5003;70010;60.224;24.712;2023-06-14T02:47:49;10;10;
80643;PMS5003;70010;60.224;24.712;2023-06-14T02:50:14;12;7;
80643;PMS5003;70010;60.224;24.712;2023-06-14T02:52:40;9;8;
80643;PMS5003;70010;60.224;24.712;2023-06-14T02:55:06;10;10;
80643;PMS5003;70010;60.224;24.712;2023-06-14T02:57:31;8;8;
80643;PMS5003;70010;60.224;24.712;2023-06-14T02:59:56;11;10;
80643;PMS5003;70010;60.224;24.712;2023-06-14T03:02:22;11;9;
80643;PMS5003;70010;60.224;24.712;2023-06-14T03:04:48;10;10;
80643;PMS5003;70010;60.224;24.712;2023-06-14T03:07:13;8;6;
80643;PMS5003;70010;60.224;24.712;2023-06-14T03:09:38;9;9;
80643;PMS5003;70010;60.224;24.712;2023-06-14T03:12:04;8;7;
80643;PMS5003;70010;60.224;24.712;2023-06-14T03:14:29;9;9;
80643;PMS5003;70010;60.224;24.712;2023-06-14T03:16:54;10;8;
80643;PMS5003;70010;60.224;24.712;2023-06-14T03:19:20;12;10;
80643;PMS5003;70010;60.224;24.712;2023-06-14T03:21:45;10;10;
80643;PMS5003;70010;60.224;24.712;2023-06-14T03:24:10;12;11;
80643;PMS5003;70010;60.224;24.712;2023-06-14T03:26:36;15;9;
80643;PMS5003;70010;60.224;24.712;2023-06-14T03:29:01;8;8;
80643;PMS5003;70010;60.224;24.712;2023-06-14T03:31:28;8;8;
80643;PMS5003;70010;60.224;24.712;2023-06-14T03:33:52;16;12;
80643;PMS5003;70010;60.224;24.712;2023-06-14T03:36:17;8;8;
80643;PMS5003;70010;60.224;24.712;2023-06-14T03:38:43;9;9;
80643;PMS5003;70010;60.224;24.712;2023-06-14T03:41:08;12;10;
80643;PMS5003;70010;60.224;24.712;2023-06-14T03:43:33;10;10;
80643;PMS5003;70010;60.224;24.712;2023-06-14T03:45:58;9;9;
80643;PMS5003;70010;60.224;24.712;2023-06-14T03:48:24;9;8;
80643;PMS5003;70010;60.224;24.712;2023-06-14T03:50:49;11;9;
80643;PMS5003;70010;60.224;24.712;2023-06-14T03:53:15;12;10;
80643;PMS5003;70010;60.224;24.712;2023-06-14T03:55:40;9;9;
80643;PMS5003;70010;60.224;24.712;2023-06-14T03:58:06;12;12;
80643;PMS5003;70010;60.224;24.712;2023-06-14T04:00:32;16;11;
80643;PMS5003;70010;60.224;24.712;2023-06-14T04:02:57;10;9;
80643;PMS5003;70010;60.224;24.712;2023-06-14T04:05:22;10;10;
80643;PMS5003;70010;60.224;24.712;2023-06-14T04:07:47;14;13;
80643;PMS5003;70010;60.224;24.712;2023-06-14T04:10:14;14;11;
80643;PMS5003;70010;60.224;24.712;2023-06-14T04:12:39;11;9;
80643;PMS5003;70010;60.224;24.712;2023-06-14T04:15:05;11;10;
80643;PMS5003;70010;60.224;24.712;2023-06-14T04:17:30;15;10;
80643;PMS5003;70010;60.224;24.712;2023-06-14T04:19:55;10;8;
80643;PMS5003;70010;60.224;24.712;2023-06-14T04:22:20;13;11;
80643;PMS5003;70010;60.224;24.712;2023-06-14T04:24:46;13;10;
80643;PMS5003;70010;60.224;24.712;2023-06-14T04:27:11;8;8;
80643;PMS5003;70010;60.224;24.712;2023-06-14T04:29:36;12;11;
80643;PMS5003;70010;60.224;24.712;2023-06-14T04:32:02;10;10;
80643;PMS5003;70010;60.224;24.712;2023-06-14T04:34:27;10;10;
80643;PMS5003;70010;60.224;24.712;2023-06-14T04:36:52;10;10;
80643;PMS5003;70010;60.224;24.712;2023-06-14T04:39:18;16;14;
80643;PMS5003;70010;60.224;24.712;2023-06-14T04:41:43;13;10;
80643;PMS5003;70010;60.224;24.712;2023-06-14T04:44:08;14;12;
80643;PMS5003;70010;60.224;24.712;2023-06-14T04:46:34;11;11;
80643;PMS5003;70010;60.224;24.712;2023-06-14T04:49:00;15;12;
80643;PMS5003;70010;60.224;24.712;2023-06-14T04:51:25;15;12;
80643;PMS5003;70010;60.224;24.712;2023-06-14T04:53:50;13;12;
80643;PMS5003;70010;60.224;24.712;2023-06-14T04:56:16;13;13;
80643;PMS5003;70010;60.224;24.712;2023-06-14T04:58:41;13;12;
80643;PMS5003;70010;60.224;24.712;2023-06-14T05:01:06;10;10;
80643;PMS5003;70010;60.224;24.712;2023-06-14T05:03:32;15;12;
80643;PMS5003;70010;60.224;24.712;2023-06-14T05:05:57;12;10;
80643;PMS5003;70010;60.224;24.712;2023-06-14T05:08:23;15;13;
80643;PMS5003;70010;60.224;24.712;2023-06-14T05:10:48;12;11;
80643;PMS5003;70010;60.224;24.712;2023-06-14T05:13:13;11;11;
80643;PMS5003;70010;60.224;24.712;2023-06-14T05:15:39;12;12;
80643;PMS5003;70010;60.224;24.712;2023-06-14T05:18:04;9;9;
80643;PMS5003;70010;60.224;24.712;2023-06-14T05:20:30;19;13;
80643;PMS5003;70010;60.224;24.712;2023-06-14T05:22:56;12;12;
80643;PMS5003;70010;60.224;24.712;2023-06-14T05:25:21;17;15;
80643;PMS5003;70010;60.224;24.712;2023-06-14T05:27:47;12;11;
80643;PMS5003;70010;60.224;24.712;2023-06-14T05:30:13;13;12;
80643;PMS5003;70010;60.224;24.712;2023-06-14T05:32:38;13;13;
80643;PMS5003;70010;60.224;24.712;2023-06-14T05:35:04;17;14;
80643;PMS5003;70010;60.224;24.712;2023-06-14T05:37:29;15;15;
80643;PMS5003;70010;60.224;24.712;2023-06-14T05:39:55;15;13;
80643;PMS5003;70010;60.224;24.712;2023-06-14T05:42:20;16;12;
80643;PMS5003;70010;60.224;24.712;2023-06-14T05:44:46;14;13;
80643;PMS5003;70010;60.224;24.712;2023-06-14T05:47:11;15;14;
80643;PMS5003;70010;60.224;24.712;2023-06-14T05:49:37;17;17;
80643;PMS5003;70010;60.224;24.712;2023-06-14T05:52:03;14;14;
80643;PMS5003;70010;60.224;24.712;2023-06-14T05:54:28;13;13;
80643;PMS5003;70010;60.224;24.712;2023-06-14T05:56:53;13;13;
80643;PMS5003;70010;60.224;24.712;2023-06-14T05:59:18;10;9;
80643;PMS5003;70010;60.224;24.712;2023-06-14T06:01:44;15;13;
80643;PMS5003;70010;60.224;24.712;2023-06-14T06:04:10;12;12;
80643;PMS5003;70010;60.224;24.712;2023-06-14T06:06:35;15;14;
80643;PMS5003;70010;60.224;24.712;2023-06-14T06:09:00;16;13;
80643;PMS5003;70010;60.224;24.712;2023-06-14T06:11:25;14;14;
80643;PMS5003;70010;60.224;24.712;2023-06-14T06:13:51;18;18;
80643;PMS5003;70010;60.224;24.712;2023-06-14T06:16:16;17;14;
80643;PMS5003;70010;60.224;24.712;2023-06-14T06:18:42;16;14;
80643;PMS5003;70010;60.224;24.712;2023-06-14T06:21:07;17;15;
80643;PMS5003;70010;60.224;24.712;2023-06-14T06:23:32;14;14;
80643;PMS5003;70010;60.224;24.712;2023-06-14T06:25:58;13;13;
80643;PMS5003;70010;60.224;24.712;2023-06-14T06:28:23;13;13;
80643;PMS5003;70010;60.224;24.712;2023-06-14T06:30:48;14;14;
80643;PMS5003;70010;60.224;24.712;2023-06-14T06:33:13;13;13;
80643;PMS5003;70010;60.224;24.712;2023-06-14T06:35:39;17;16;
80643;PMS5003;70010;60.224;24.712;2023-06-14T06:38:05;12;10;
80643;PMS5003;70010;60.224;24.712;2023-06-14T06:40:30;10;10;
80643;PMS5003;70010;60.224;24.712;2023-06-14T06:42:56;11;11;
80643;PMS5003;70010;60.224;24.712;2023-06-14T06:45:21;13;12;
80643;PMS5003;70010;60.224;24.712;2023-06-14T06:47:46;17;12;
80643;PMS5003;70010;60.224;24.712;2023-06-14T06:50:12;12;12;
80643;PMS5003;70010;60.224;24.712;2023-06-14T06:52:37;9;9;
80643;PMS5003;70010;60.224;24.712;2023-06-14T06:55:03;13;12;
80643;PMS5003;70010;60.224;24.712;2023-06-14T06:57:28;14;14;
80643;PMS5003;70010;60.224;24.712;2023-06-14T06:59:53;13;13;
80643;PMS5003;70010;60.224;24.712;2023-06-14T07:02:19;13;11;
80643;PMS5003;70010;60.224;24.712;2023-06-14T07:04:45;14;13;
80643;PMS5003;70010;60.224;24.712;2023-06-14T07:07:10;14;12;
80643;PMS5003;70010;60.224;24.712;2023-06-14T07:09:36;15;13;
80643;PMS5003;70010;60.224;24.712;2023-06-14T07:12:01;15;13;
80643;PMS5003;70010;60.224;24.712;2023-06-14T07:14:26;13;13;
80643;PMS5003;70010;60.224;24.712;2023-06-14T07:16:52;11;11;
80643;PMS5003;70010;60.224;24.712;2023-06-14T07:19:17;14;12;
80643;PMS5003;70010;60.224;24.712;2023-06-14T07:21:43;10;10;
80643;PMS5003;70010;60.224;24.712;2023-06-14T07:24:09;16;15;
80643;PMS5003;70010;60.224;24.712;2023-06-14T07:26:35;13;13;
80643;PMS5003;70010;60.224;24.712;2023-06-14T07:29:00;13;13;
80643;PMS5003;70010;60.224;24.712;2023-06-14T07:31:26;11;10;
80643;PMS5003;70010;60.224;24.712;2023-06-14T07:33:51;14;10;
80643;PMS5003;70010;60.224;24.712;2023-06-14T07:36:16;10;10;
80643;PMS5003;70010;60.224;24.712;2023-06-14T07:38:42;13;12;
80643;PMS5003;70010;60.224;24.712;2023-06-14T07:41:07;15;11;
80643;PMS5003;70010;60.224;24.712;2023-06-14T07:43:33;10;10;
80643;PMS5003;70010;60.224;24.712;2023-06-14T07:45:58;14;12;
80643;PMS5003;70010;60.224;24.712;2023-06-14T07:48:23;13;11;
80643;PMS5003;70010;60.224;24.712;2023-06-14T07:50:50;15;14;
80643;PMS5003;70010;60.224;24.712;2023-06-14T07:53:15;11;11;
80643;PMS5003;70010;60.224;24.712;2023-06-14T07:55:40;11;11;
80643;PMS5003;70010;60.224;24.712;2023-06-14T07:58:05;15;13;
80643;PMS5003;70010;60.224;24.712;2023-06-14T08:00:30;12;12;
80643;PMS5003;70010;60.224;24.712;2023-06-14T08:02:56;14;13;
80643;PMS5003;70010;60.224;24.712;2023-06-14T08:05:21;13;11;
80643;PMS5003;70010;60.224;24.712;2023-06-14T08:07:47;14;13;
80643;PMS5003;70010;60.224;24.712;2023-06-14T08:10:13;13;13;
80643;PMS5003;70010;60.224;24.712;2023-06-14T08:12:38;13;11;
80643;PMS5003;70010;60.224;24.712;2023-06-14T08:15:04;13;12;
80643;PMS5003;70010;60.224;24.712;2023-06-14T08:17:29;11;11;
80643;PMS5003;70010;60.224;24.712;2023-06-14T08:19:55;12;12;
80643;PMS5003;70010;60.224;24.712;2023-06-14T08:22:20;13;12;
80643;PMS5003;70010;60.224;24.712;2023-06-14T08:24:46;16;15;
80643;PMS5003;70010;60.224;24.712;2023-06-14T08:27:12;12;12;
80643;PMS5003;70010;60.224;24.712;2023-06-14T08:29:37;10;10;
80643;PMS5003;70010;60.224;24.712;2023-06-14T08:32:02;10;10;
80643;PMS5003;70010;60.224;24.712;2023-06-14T08:34:28;12;12;
80643;PMS5003;70010;60.224;24.712;2023-06-14T08:36:54;12;12;
80643;PMS5003;70010;60.224;24.712;2023-06-14T08:39:19;12;11;
80643;PMS5003;70010;60.224;24.712;2023-06-14T08:41:46;11;10;
80643;PMS5003;70010;60.224;24.712;2023-06-14T08:44:10;11;11;
80643;PMS5003;70010;60.224;24.712;2023-06-14T08:46:36;11;11;
80643;PMS5003;70010;60.224;24.712;2023-06-14T08:49:01;11;11;
80643;PMS5003;70010;60.224;24.712;2023-06-14T08:51:27;15;13;
80643;PMS5003;70010;60.224;24.712;2023-06-14T08:53:52;11;10;
80643;PMS5003;70010;60.224;24.712;2023-06-14T08:56:17;11;11;
80643;PMS5003;70010;60.224;24.712;2023-06-14T08:58:43;11;11;
80643;PMS5003;70010;60.224;24.712;2023-06-14T09:01:08;13;12;
80643;PMS5003;70010;60.224;24.712;2023-06-14T09:03:34;12;12;
80643;PMS5003;70010;60.224;24.712;2023-06-14T09:05:59;11;10;
80643;PMS5003;70010;60.224;24.712;2023-06-14T09:08:25;11;9;
80643;PMS5003;70010;60.224;24.712;2023-06-14T09:10:50;13;10;
80643;PMS5003;70010;60.224;24.712;2023-06-14T09:13:16;12;11;
80643;PMS5003;70010;60.224;24.712;2023-06-14T09:15:41;11;11;
80643;PMS5003;70010;60.224;24.712;2023-06-14T09:18:06;12;12;
80643;PMS5003;70010;60.224;24.712;2023-06-14T09:20:32;9;9;
80643;PMS5003;70010;60.224;24.712;2023-06-14T09:22:57;11;11;
80643;PMS5003;70010;60.224;24.712;2023-06-14T09:25:22;9;8;
80643;PMS5003;70010;60.224;24.712;2023-06-14T09:27:48;13;11;
80643;PMS5003;70010;60.224;24.712;2023-06-14T09:30:13;11;11;
80643;PMS5003;70010;60.224;24.712;2023-06-14T09:32:39;13;11;
80643;PMS5003;70010;60.224;24.712;2023-06-14T09:35:04;11;11;
80643;PMS5003;70010;60.224;24.712;2023-06-14T09:37:29;10;10;
80643;PMS5003;70010;60.224;24.712;2023-06-14T09:42:20;12;11;
80643;PMS5003;70010;60.224;24.712;2023-06-14T09:44:45;11;11;
80643;PMS5003;70010;60.224;24.712;2023-06-14T09:47:10;11;9;
80643;PMS5003;70010;60.224;24.712;2023-06-14T09:49:35;14;11;
80643;PMS5003;70010;60.224;24.712;2023-06-14T09:52:02;9;9;
80643;PMS5003;70010;60.224;24.712;2023-06-14T09:54:27;12;11;
80643;PMS5003;70010;60.224;24.712;2023-06-14T09:56:52;8;7;
80643;PMS5003;70010;60.224;24.712;2023-06-14T09:59:19;10;10;
80643;PMS5003;70010;60.224;24.712;2023-06-14T10:01:43;11;11;
80643;PMS5003;70010;60.224;24.712;2023-06-14T10:04:08;11;11;
80643;PMS5003;70010;60.224;24.712;2023-06-14T10:06:35;13;12;
80643;PMS5003;70010;60.224;24.712;2023-06-14T10:08:59;9;9;
80643;PMS5003;70010;60.224;24.712;2023-06-14T10:11:25;10;10;
80643;PMS5003;70010;60.224;24.712;2023-06-14T10:13:50;8;8;
80643;PMS5003;70010;60.224;24.712;2023-06-14T10:16:16;14;13;
80643;PMS5003;70010;60.224;24.712;2023-06-14T10:18:43;14;12;
80643;PMS5003;70010;60.224;24.712;2023-06-14T10:21:12;10;9;
80643;PMS5003;70010;60.224;24.712;2023-06-14T10:23:32;10;10;
80643;PMS5003;70010;60.224;24.712;2023-06-14T10:25:57;12;11;
80643;PMS5003;70010;60.224;24.712;2023-06-14T10:28:23;12;10;
80643;PMS5003;70010;60.224;24.712;2023-06-14T10:33:13;11;9;
80643;PMS5003;70010;60.224;24.712;2023-06-14T10:35:39;11;10;
80643;PMS5003;70010;60.224;24.712;2023-06-14T10:38:06;10;9;
80643;PMS5003;70010;60.224;24.712;2023-06-14T10:40:30;8;8;
80643;PMS5003;70010;60.224;24.712;2023-06-14T10:42:55;8;7;
80643;PMS5003;70010;60.224;24.712;2023-06-14T10:45:20;10;8;
80643;PMS5003;70010;60.224;24.712;2023-06-14T10:47:45;11;11;
80643;PMS5003;70010;60.224;24.712;2023-06-14T10:50:11;11;11;
80643;PMS5003;70010;60.224;24.712;2023-06-14T10:52:38;7;7;
80643;PMS5003;70010;60.224;24.712;2023-06-14T10:57:27;11;11;
80643;PMS5003;70010;60.224;24.712;2023-06-14T10:59:53;8;7;
80643;PMS5003;70010;60.224;24.712;2023-06-14T11:02:31;8;7;
80643;PMS5003;70010;60.224;24.712;2023-06-14T11:04:47;9;9;
80643;PMS5003;70010;60.224;24.712;2023-06-14T11:07:10;10;9;
80643;PMS5003;70010;60.224;24.712;2023-06-14T11:09:41;7;7;
80643;PMS5003;70010;60.224;24.712;2023-06-14T11:12:00;9;8;
80643;PMS5003;70010;60.224;24.712;2023-06-14T11:14:25;8;8;
80643;PMS5003;70010;60.224;24.712;2023-06-14T11:16:50;9;9;
80643;PMS5003;70010;60.224;24.712;2023-06-14T11:19:16;5;5;
80643;PMS5003;70010;60.224;24.712;2023-06-14T11:21:41;8;7;
80643;PMS5003;70010;60.224;24.712;2023-06-14T11:24:09;9;7;
80643;PMS5003;70010;60.224;24.712;2023-06-14T11:26:31;10;10;
80643;PMS5003;70010;60.224;24.712;2023-06-14T11:28:57;9;8;
80643;PMS5003;70010;60.224;24.712;2023-06-14T11:31:22;8;8;
80643;PMS5003;70010;60.224;24.712;2023-06-14T11:33:49;10;8;
80643;PMS5003;70010;60.224;24.712;2023-06-14T11:36:13;8;8;
80643;PMS5003;70010;60.224;24.712;2023-06-14T11:38:38;8;8;
80643;PMS5003;70010;60.224;24.712;2023-06-14T11:41:04;8;8;
80643;PMS5003;70010;60.224;24.712;2023-06-14T11:43:29;10;10;
80643;PMS5003;70010;60.224;24.712;2023-06-14T11:45:54;9;9;
80643;PMS5003;70010;60.224;24.712;2023-06-14T11:48:19;8;8;
80643;PMS5003;70010;60.224;24.712;2023-06-14T11:50:49;8;8;
80643;PMS5003;70010;60.224;24.712;2023-06-14T11:53:10;7;7;
80643;PMS5003;70010;60.224;24.712;2023-06-14T11:55:36;7;6;
80643;PMS5003;70010;60.224;24.712;2023-06-14T11:58:01;6;6;
80643;PMS5003;70010;60.224;24.712;2023-06-14T12:00:26;8;7;
80643;PMS5003;70010;60.224;24.712;2023-06-14T12:02:52;7;7;
80643;PMS5003;70010;60.224;24.712;2023-06-14T12:05:16;6;6;
80643;PMS5003;70010;60.224;24.712;2023-06-14T12:07:41;7;7;
80643;PMS5003;70010;60.224;24.712;2023-06-14T12:10:07;9;8;
80643;PMS5003;70010;60.224;24.712;2023-06-14T12:12:34;7;7;
80643;PMS5003;70010;60.224;24.712;2023-06-14T12:14:57;7;7;
80643;PMS5003;70010;60.224;24.712;2023-06-14T12:17:23;9;9;
80643;PMS5003;70010;60.224;24.712;2023-06-14T12:19:49;6;6;
80643;PMS5003;70010;60.224;24.712;2023-06-14T12:22:14;8;8;
80643;PMS5003;70010;60.224;24.712;2023-06-14T12:24:39;9;7;
80643;PMS5003;70010;60.224;24.712;2023-06-14T12:27:04;9;6;
80643;PMS5003;70010;60.224;24.712;2023-06-14T12:29:29;10;6;
80643;PMS5003;70010;60.224;24.712;2023-06-14T12:31:55;8;8;
80643;PMS5003;70010;60.224;24.712;2023-06-14T12:34:20;6;6;
80643;PMS5003;70010;60.224;24.712;2023-06-14T12:36:45;7;5;
80643;PMS5003;70010;60.224;24.712;2023-06-14T12:39:10;11;9;
80643;PMS5003;70010;60.224;24.712;2023-06-14T12:41:36;5;5;
80643;PMS5003;70010;60.224;24.712;2023-06-14T12:44:01;9;7;
80643;PMS5003;70010;60.224;24.712;2023-06-14T12:46:26;9;8;
80643;PMS5003;70010;60.224;24.712;2023-06-14T12:48:52;12;11;
80643;PMS5003;70010;60.224;24.712;2023-06-14T12:51:17;9;9;
80643;PMS5003;70010;60.224;24.712;2023-06-14T12:53:44;13;12;
80643;PMS5003;70010;60.224;24.712;2023-06-14T12:56:08;8;8;
80643;PMS5003;70010;60.224;24.712;2023-06-14T12:58:34;9;7;
80643;PMS5003;70010;60.224;24.712;2023-06-14T13:00:59;8;8;
80643;PMS5003;70010;60.224;24.712;2023-06-14T13:03:25;14;12;
80643;PMS5003;70010;60.224;24.712;2023-06-14T13:05:50;8;8;
80643;PMS5003;70010;60.224;24.712;2023-06-14T13:08:15;9;8;
80643;PMS5003;70010;60.224;24.712;2023-06-14T13:10:41;9;7;
80643;PMS5003;70010;60.224;24.712;2023-06-14T13:13:06;8;8;
80643;PMS5003;70010;60.224;24.712;2023-06-14T13:15:31;7;7;
80643;PMS5003;70010;60.224;24.712;2023-06-14T13:17:56;8;8;
80643;PMS5003;70010;60.224;24.712;2023-06-14T13:20:22;8;8;
80643;PMS5003;70010;60.224;24.712;2023-06-14T13:22:47;9;7;
80643;PMS5003;70010;60.224;24.712;2023-06-14T13:25:12;8;8;
80643;PMS5003;70010;60.224;24.712;2023-06-14T13:27:38;9;8;
80643;PMS5003;70010;60.224;24.712;2023-06-14T13:30:03;8;8;
80643;PMS5003;70010;60.224;24.712;2023-06-14T13:32:28;10;9;
80643;PMS5003;70010;60.224;24.712;2023-06-14T13:34:54;9;8;
80643;PMS5003;70010;60.224;24.712;2023-06-14T13:37:19;8;8;
80643;PMS5003;70010;60.224;24.712;2023-06-14T13:39:44;8;8;
80643;PMS5003;70010;60.224;24.712;2023-06-14T13:42:10;8;8;
80643;PMS5003;70010;60.224;24.712;2023-06-14T13:44:35;7;7;
80643;PMS5003;70010;60.224;24.712;2023-06-14T13:47:00;9;8;
80643;PMS5003;70010;60.224;24.712;2023-06-14T13:49:25;9;8;
80643;PMS5003;70010;60.224;24.712;2023-06-14T13:51:51;7;7;
80643;PMS5003;70010;60.224;24.712;2023-06-14T13:54:18;9;9;
80643;PMS5003;70010;60.224;24.712;2023-06-14T13:56:42;9;9;
80643;PMS5003;70010;60.224;24.712;2023-06-14T13:59:07;11;9;
80643;PMS5003;70010;60.224;24.712;2023-06-14T14:01:32;10;8;
80643;PMS5003;70010;60.224;24.712;2023-06-14T14:03:57;10;10;
80643;PMS5003;70010;60.224;24.712;2023-06-14T14:06:22;9;9;
80643;PMS5003;70010;60.224;24.712;2023-06-14T14:08:48;8;8;
80643;PMS5003;70010;60.224;24.712;2023-06-14T14:11:13;9;9;
80643;PMS5003;70010;60.224;24.712;2023-06-14T14:13:38;10;6;
80643;PMS5003;70010;60.224;24.712;2023-06-14T14:16:04;7;7;
80643;PMS5003;70010;60.224;24.712;2023-06-14T14:18:29;6;6;
80643;PMS5003;70010;60.224;24.712;2023-06-14T14:20:55;12;11;
80643;PMS5003;70010;60.224;24.712;2023-06-14T14:23:21;7;6;
80643;PMS5003;70010;60.224;24.712;2023-06-14T14:25:45;7;7;
80643;PMS5003;70010;60.224;24.712;2023-06-14T14:28:11;6;6;
80643;PMS5003;70010;60.224;24.712;2023-06-14T14:30:37;8;8;
80643;PMS5003;70010;60.224;24.712;2023-06-14T14:33:02;6;6;
80643;PMS5003;70010;60.224;24.712;2023-06-14T14:35:27;6;6;
80643;PMS5003;70010;60.224;24.712;2023-06-14T14:37:53;8;6;
80643;PMS5003;70010;60.224;24.712;2023-06-14T14:40:18;7;7;
80643;PMS5003;70010;60.224;24.712;2023-06-14T14:42:43;7;5;
80643;PMS5003;70010;60.224;24.712;2023-06-14T14:45:09;5;5;
80643;PMS5003;70010;60.224;24.712;2023-06-14T14:47:34;6;6;
80643;PMS5003;70010;60.224;24.712;2023-06-14T14:49:59;4;4;
80643;PMS5003;70010;60.224;24.712;2023-06-14T14:52:24;5;4;
80643;PMS5003;70010;60.224;24.712;2023-06-14T14:54:50;7;7;
80643;PMS5003;70010;60.224;24.712;2023-06-14T14:57:15;4;4;
80643;PMS5003;70010;60.224;24.712;2023-06-14T14:59:40;7;6;
80643;PMS5003;70010;60.224;24.712;2023-06-14T15:02:05;6;4;
80643;PMS5003;70010;60.224;24.712;2023-06-14T15:04:31;6;6;
80643;PMS5003;70010;60.224;24.712;2023-06-14T15:06:56;4;4;
80643;PMS5003;70010;60.224;24.712;2023-06-14T15:09:21;7;5;
80643;PMS5003;70010;60.224;24.712;2023-06-14T15:11:47;6;5;
80643;PMS5003;70010;60.224;24.712;2023-06-14T15:14:12;8;6;
80643;PMS5003;70010;60.224;24.712;2023-06-14T15:16:38;6;6;
80643;PMS5003;70010;60.224;24.712;2023-06-14T15:19:03;7;7;
80643;PMS5003;70010;60.224;24.712;2023-06-14T15:21:28;7;7;
80643;PMS5003;70010;60.224;24.712;2023-06-14T15:23:54;8;7;
80643;PMS5003;70010;60.224;24.712;2023-06-14T15:26:20;7;6;
80643;PMS5003;70010;60.224;24.712;2023-06-14T15:28:45;6;6;
80643;PMS5003;70010;60.224;24.712;2023-06-14T15:31:10;4;4;
80643;PMS5003;70010;60.224;24.712;2023-06-14T15:33:36;6;6;
80643;PMS5003;70010;60.224;24.712;2023-06-14T15:36:01;6;6;
80643;PMS5003;70010;60.224;24.712;2023-06-14T15:38:27;6;5;
80643;PMS5003;70010;60.224;24.712;2023-06-14T15:40:52;6;5;
80643;PMS5003;70010;60.224;24.712;2023-06-14T15:43:17;7;6;
80643;PMS5003;70010;60.224;24.712;2023-06-14T15:45:43;5;5;
80643;PMS5003;70010;60.224;24.712;2023-06-14T15:48:09;7;5;
80643;PMS5003;70010;60.224;24.712;2023-06-14T15:50:34;6;6;
80643;PMS5003;70010;60.224;24.712;2023-06-14T15:52:59;8;5;
80643;PMS5003;70010;60.224;24.712;2023-06-14T15:55:25;6;6;
80643;PMS5003;70010;60.224;24.712;2023-06-14T15:57:50;6;6;
80643;PMS5003;70010;60.224;24.712;2023-06-14T16:00:16;8;7;
80643;PMS5003;70010;60.224;24.712;2023-06-14T16:02:41;6;6;
80643;PMS5003;70010;60.224;24.712;2023-06-14T16:05:07;5;5;
80643;PMS5003;70010;60.224;24.712;2023-06-14T16:07:32;5;5;
80643;PMS5003;70010;60.224;24.712;2023-06-14T16:09:58;5;5;
80643;PMS5003;70010;60.224;24.712;2023-06-14T16:12:23;6;6;